createdAt,value
2022-10-09T00:00:05.727Z,1.20
2022-10-09T00:20:05.392Z,1.40
2022-10-09T00:40:05.139Z,3.00
2022-10-09T01:00:04.846Z,3.00
2022-10-09T01:20:04.603Z,2.80
2022-10-09T01:40:04.338Z,3.20
2022-10-09T02:00:04.092Z,2.10
2022-10-09T02:20:03.772Z,2.80
2022-10-09T02:40:07.058Z,1.80
2022-10-09T03:00:03.225Z,4.50
2022-10-09T03:20:02.929Z,7.30
2022-10-09T03:40:02.644Z,9.90
2022-10-09T04:00:02.427Z,2.60
2022-10-09T04:20:02.094Z,3.60
2022-10-09T04:40:01.811Z,6.10
2022-10-09T05:00:01.543Z,5.90
2022-10-09T05:20:01.274Z,5.70
2022-10-09T05:40:00.958Z,11.40
2022-10-09T06:00:00.677Z,7.20
2022-10-09T06:20:00.456Z,6.00
2022-10-09T06:40:00.133Z,8.60
2022-10-09T06:59:59.846Z,8.10
2022-10-09T07:19:59.624Z,7.00
2022-10-09T07:39:59.299Z,5.20
2022-10-09T07:59:59.073Z,6.80
2022-10-09T08:19:58.780Z,9.20
2022-10-09T08:39:58.471Z,5.10
2022-10-09T08:59:58.202Z,8.60
2022-10-09T09:19:57.915Z,7.00
2022-10-09T09:59:57.408Z,5.90
2022-10-09T10:19:57.127Z,3.80
2022-10-09T10:39:56.818Z,2.20
2022-10-09T10:59:56.577Z,1.20
2022-10-09T11:19:56.291Z,1.80
2022-10-09T11:39:56.030Z,3.40
2022-10-09T11:59:55.707Z,1.60
2022-10-09T12:20:00.187Z,1.40
2022-10-09T12:39:55.220Z,1.40
2022-10-09T12:59:54.919Z,2.30
2022-10-09T13:19:54.657Z,3.80
2022-10-09T13:39:54.366Z,1.60
2022-10-09T13:59:54.084Z,3.80
2022-10-09T14:19:53.800Z,1.20
2022-10-09T14:39:53.528Z,1.90
2022-10-09T14:59:53.291Z,1.30
2022-10-09T15:19:52.950Z,2.10
2022-10-09T15:39:52.668Z,2.80
2022-10-09T15:59:52.411Z,1.60
2022-10-09T16:19:52.131Z,1.40
2022-10-09T16:39:51.860Z,2.30
2022-10-09T16:59:51.614Z,3.10
2022-10-09T17:39:52.403Z,3.80
2022-10-09T17:59:50.800Z,3.60
2022-10-09T18:19:50.515Z,4.70
2022-10-09T18:39:50.178Z,3.90
2022-10-09T18:59:49.892Z,4.90
2022-10-09T19:19:49.626Z,4.40
2022-10-09T19:39:49.653Z,3.30
2022-10-09T19:59:49.072Z,4.30
2022-10-09T20:19:48.826Z,6.70
2022-10-09T20:39:48.651Z,4.20
2022-10-09T20:59:48.275Z,5.00
2022-10-09T21:19:48.015Z,5.50
2022-10-09T21:39:47.829Z,5.00
2022-10-09T21:59:47.468Z,3.20
2022-10-09T22:19:47.223Z,3.60
2022-10-09T22:39:46.958Z,4.10
2022-10-09T22:59:46.644Z,3.40
2022-10-09T23:19:46.351Z,4.60
2022-10-09T23:39:46.103Z,3.40
2022-10-09T23:59:45.767Z,2.90
